Time;durP1;ratioP1;P1;durP2;ratioP2;P2;SDS_P1;SDS_P2;PMS_P1;PMS_P2;Temp;Humidity;BMP_temperature;BMP_pressure;BME280_temperature;BME280_humidity;BME280_pressure;Samples;Min_cycle;Max_cycle;Signal;HPM_P1;HPM_P2
2022/12/30 00:00:09;;;;;;;3.08;1.05;;;;;;;;;;5077557;28;20268;-80
2022/12/30 00:02:36;;;;;;;2.17;0.73;;;;;;;;;;5077295;28;20424;-82
2022/12/30 00:05:01;;;;;;;2.92;0.63;;;;;;;;;;5077231;28;20508;-80
2022/12/30 00:07:26;;;;;;;4.65;1.63;;;;;;;;;;5076878;28;20043;-81
2022/12/30 00:09:53;;;;;;;4.13;1.50;;;;;;;;;;5076796;28;20077;-83
2022/12/30 00:34:31;;;;;;;2.38;0.60;;;;;;;;;;5076813;28;20059;-82
2022/12/30 00:36:57;;;;;;;1.67;0.70;;;;;;;;;;5076541;28;20017;-82
2022/12/30 00:39:22;;;;;;;4.25;0.80;;;;;;;;;;5076261;28;20029;-81
2022/12/30 00:44:31;;;;;;;2.13;0.75;;;;;;;;;;5076282;28;20401;-82
2022/12/30 00:46:57;;;;;;;0.98;0.52;;;;;;;;;;5076163;28;20025;-81
2022/12/30 00:57:34;;;;;;;5.68;0.77;;;;;;;;;;5076794;28;20074;-80
2022/12/30 01:00:00;;;;;;;1.35;0.57;;;;;;;;;;5079806;28;20032;-81
2022/12/30 01:02:25;;;;;;;1.08;0.70;;;;;;;;;;5080328;28;20021;-80
2022/12/30 01:04:51;;;;;;;3.50;0.90;;;;;;;;;;5079883;28;20093;-83
2022/12/30 01:07:16;;;;;;;4.78;0.80;;;;;;;;;;5080222;28;20052;-80
2022/12/30 01:09:41;;;;;;;3.28;0.70;;;;;;;;;;5079913;28;20032;-79
2022/12/30 01:12:10;;;;;;;4.43;1.00;;;;;;;;;;5078828;28;20459;-82
2022/12/30 01:14:37;;;;;;;2.20;0.70;;;;;;;;;;5060437;28;20257;-80
2022/12/30 01:17:03;;;;;;;5.28;0.80;;;;;;;;;;5060338;28;20029;-81
2022/12/30 01:19:29;;;;;;;4.88;0.82;;;;;;;;;;5078138;28;20029;-82
2022/12/30 01:21:54;;;;;;;2.60;0.93;;;;;;;;;;5078869;28;20032;-82
2022/12/30 01:24:19;;;;;;;3.53;0.90;;;;;;;;;;5078956;28;20020;-80
2022/12/30 01:26:44;;;;;;;4.33;0.70;;;;;;;;;;5079842;28;20028;-81
2022/12/30 01:29:10;;;;;;;4.00;0.63;;;;;;;;;;5061599;28;20315;-81
2022/12/30 01:31:35;;;;;;;2.50;0.60;;;;;;;;;;5079386;28;20253;-83
2022/12/30 01:34:00;;;;;;;3.60;0.97;;;;;;;;;;5079484;28;20033;-81
2022/12/30 01:36:26;;;;;;;5.60;1.10;;;;;;;;;;5079644;28;20264;-82
2022/12/30 01:38:51;;;;;;;1.75;0.57;;;;;;;;;;5080084;28;20025;-81
2022/12/30 01:41:16;;;;;;;3.08;0.65;;;;;;;;;;5079274;28;20154;-81
2022/12/30 01:43:48;;;;;;;5.32;0.90;;;;;;;;;;5079399;28;20123;-81
2022/12/30 01:46:19;;;;;;;4.90;0.88;;;;;;;;;;5079382;28;20032;-81
2022/12/30 01:48:46;;;;;;;2.75;0.90;;;;;;;;;;5079854;28;20028;-80
2022/12/30 01:51:20;;;;;;;5.28;0.95;;;;;;;;;;5062088;28;20024;-80
2022/12/30 01:53:50;;;;;;;3.05;0.70;;;;;;;;;;5080239;28;20031;-81
2022/12/30 01:56:35;;;;;;;5.78;1.10;;;;;;;;;;5062376;28;20046;-81
2022/12/30 01:59:05;;;;;;;3.42;0.95;;;;;;;;;;5061649;28;20022;-81
2022/12/30 02:01:33;;;;;;;2.17;0.80;;;;;;;;;;5079501;28;20489;-82
2022/12/30 02:04:03;;;;;;;2.97;0.90;;;;;;;;;;5061322;28;20088;-80
2022/12/30 02:06:43;;;;;;;3.28;0.80;;;;;;;;;;5079590;28;20028;-82
2022/12/30 02:09:09;;;;;;;2.33;0.70;;;;;;;;;;5079886;28;20385;-81
2022/12/30 02:11:34;;;;;;;4.35;0.80;;;;;;;;;;5061521;28;20174;-82
2022/12/30 02:14:00;;;;;;;4.53;1.00;;;;;;;;;;5080142;28;20021;-81
2022/12/30 02:17:23;;;;;;;6.03;1.02;;;;;;;;;;5079728;28;20029;-82
2022/12/30 02:20:13;;;;;;;2.17;0.73;;;;;;;;;;5001480;28;20026;-81
2022/12/30 02:23:01;;;;;;;3.60;0.68;;;;;;;;;;5017233;28;20049;-81
2022/12/30 02:25:53;;;;;;;2.35;0.90;;;;;;;;;;5048146;28;20039;-81
2022/12/30 02:28:36;;;;;;;3.40;0.80;;;;;;;;;;5079134;28;20024;-80
2022/12/30 02:31:31;;;;;;;2.35;0.70;;;;;;;;;;5079658;28;20051;-80
2022/12/30 02:34:24;;;;;;;3.47;0.90;;;;;;;;;;5078638;28;20025;-81
2022/12/30 02:37:04;;;;;;;1.65;0.70;;;;;;;;;;5060755;28;20040;-81
2022/12/30 02:40:11;;;;;;;1.23;0.60;;;;;;;;;;5078984;28;20028;-81
2022/12/30 02:45:39;;;;;;;2.40;0.75;;;;;;;;;;5017179;28;20032;-81
2022/12/30 02:48:14;;;;;;;3.67;0.85;;;;;;;;;;5062419;28;20051;-82
2022/12/30 02:53:29;;;;;;;3.60;1.00;;;;;;;;;;5079431;28;20497;-80
2022/12/30 02:55:54;;;;;;;3.72;0.90;;;;;;;;;;5078589;28;20033;-81
2022/12/30 02:58:21;;;;;;;2.22;0.60;;;;;;;;;;5061484;28;20032;-81
2022/12/30 03:04:32;;;;;;;2.88;1.20;;;;;;;;;;5078481;28;20043;-81
2022/12/30 03:07:23;;;;;;;2.95;0.90;;;;;;;;;;5078414;28;20059;-82
2022/12/30 03:13:13;;;;;;;3.30;0.95;;;;;;;;;;5078452;28;20057;-81
2022/12/30 03:15:44;;;;;;;4.78;1.10;;;;;;;;;;5078475;28;20025;-81
2022/12/30 03:18:11;;;;;;;5.50;1.05;;;;;;;;;;5078273;28;20032;-81
2022/12/30 03:20:39;;;;;;;3.92;0.88;;;;;;;;;;5078315;28;20039;-80
2022/12/30 03:28:40;;;;;;;5.90;0.93;;;;;;;;;;5078265;28;20030;-80
2022/12/30 03:31:09;;;;;;;2.80;0.75;;;;;;;;;;5078458;28;20032;-81
2022/12/30 03:33:34;;;;;;;4.20;1.08;;;;;;;;;;5077808;28;20047;-81
2022/12/30 03:36:13;;;;;;;4.88;0.70;;;;;;;;;;5078246;28;20470;-81
2022/12/30 03:38:41;;;;;;;2.05;0.70;;;;;;;;;;5078431;28;20028;-80
2022/12/30 03:41:08;;;;;;;3.50;0.90;;;;;;;;;;5078132;28;20071;-80
2022/12/30 03:43:34;;;;;;;2.38;0.68;;;;;;;;;;5078182;28;20028;-81
2022/12/30 03:46:00;;;;;;;2.97;0.88;;;;;;;;;;5078140;28;20024;-82
2022/12/30 03:48:25;;;;;;;4.38;0.70;;;;;;;;;;5078198;28;20040;-82
2022/12/30 03:50:50;;;;;;;5.88;1.05;;;;;;;;;;5077774;28;20024;-81
2022/12/30 03:53:16;;;;;;;7.37;0.80;;;;;;;;;;5078506;28;20107;-80
2022/12/30 03:55:41;;;;;;;5.25;1.13;;;;;;;;;;5078357;28;20772;-81
2022/12/30 03:58:06;;;;;;;3.33;1.13;;;;;;;;;;5077693;28;20031;-81
2022/12/30 04:00:32;;;;;;;3.55;0.80;;;;;;;;;;5076625;28;20754;-81
2022/12/30 04:02:57;;;;;;;4.90;0.93;;;;;;;;;;5077599;28;20391;-81
2022/12/30 04:05:22;;;;;;;4.70;1.00;;;;;;;;;;5076714;28;20033;-81
2022/12/30 04:07:48;;;;;;;3.38;1.15;;;;;;;;;;5060078;28;20106;-79
2022/12/30 04:10:13;;;;;;;7.18;1.48;;;;;;;;;;5077342;28;20028;-81
2022/12/30 04:12:38;;;;;;;3.63;0.87;;;;;;;;;;5077351;28;20031;-81
2022/12/30 04:15:04;;;;;;;4.18;0.95;;;;;;;;;;5077589;28;20252;-82
2022/12/30 04:17:29;;;;;;;2.78;0.82;;;;;;;;;;5077180;28;20032;-80
2022/12/30 04:19:54;;;;;;;7.72;1.10;;;;;;;;;;5077823;28;20024;-80
2022/12/30 04:22:20;;;;;;;5.73;0.87;;;;;;;;;;5059309;28;20035;-80
2022/12/30 04:24:45;;;;;;;4.57;0.88;;;;;;;;;;5077512;28;20265;-79
2022/12/30 04:27:10;;;;;;;4.93;1.20;;;;;;;;;;5077200;28;20032;-80
2022/12/30 04:29:35;;;;;;;3.10;1.03;;;;;;;;;;5077092;28;20261;-82
2022/12/30 04:32:00;;;;;;;4.63;1.17;;;;;;;;;;5059184;28;20262;-83
2022/12/30 04:34:26;;;;;;;5.50;0.97;;;;;;;;;;5061437;28;20265;-80
2022/12/30 04:36:51;;;;;;;6.47;1.05;;;;;;;;;;5080934;28;20340;-80
2022/12/30 04:39:16;;;;;;;5.43;1.00;;;;;;;;;;5080814;28;20556;-81
2022/12/30 04:41:41;;;;;;;2.45;0.70;;;;;;;;;;5081047;28;20742;-80
2022/12/30 04:44:07;;;;;;;3.75;0.90;;;;;;;;;;5080610;28;20024;-81
2022/12/30 04:46:33;;;;;;;3.78;1.10;;;;;;;;;;5081334;28;20023;-80
2022/12/30 04:48:58;;;;;;;5.32;0.88;;;;;;;;;;5080752;28;20044;-80
2022/12/30 04:51:24;;;;;;;3.95;0.85;;;;;;;;;;5080881;28;20027;-80
2022/12/30 04:53:50;;;;;;;6.72;1.40;;;;;;;;;;5080779;28;20033;-81
2022/12/30 04:56:15;;;;;;;4.68;1.27;;;;;;;;;;5080345;28;20060;-81
2022/12/30 04:58:40;;;;;;;4.97;1.17;;;;;;;;;;5080542;28;20036;-81
2022/12/30 05:01:06;;;;;;;3.80;0.88;;;;;;;;;;5062359;28;20127;-81
2022/12/30 05:03:31;;;;;;;5.57;0.98;;;;;;;;;;5080379;28;20025;-80
2022/12/30 05:05:57;;;;;;;2.88;0.90;;;;;;;;;;5079971;28;20052;-81
2022/12/30 05:08:22;;;;;;;3.47;0.90;;;;;;;;;;5079995;28;20025;-81
2022/12/30 05:10:48;;;;;;;2.95;0.93;;;;;;;;;;5080120;28;20024;-81
2022/12/30 05:13:13;;;;;;;4.20;0.98;;;;;;;;;;5061970;28;20020;-79
2022/12/30 05:15:39;;;;;;;2.20;0.90;;;;;;;;;;5080398;28;20017;-81
2022/12/30 05:18:04;;;;;;;2.58;0.77;;;;;;;;;;5080744;28;20052;-81
2022/12/30 05:20:29;;;;;;;4.72;1.20;;;;;;;;;;5080300;28;20088;-80
2022/12/30 05:22:54;;;;;;;2.30;1.00;;;;;;;;;;5061782;28;20025;-81
2022/12/30 05:28:04;;;;;;;2.15;0.90;;;;;;;;;;5080062;28;20466;-81
2022/12/30 05:30:29;;;;;;;3.03;0.90;;;;;;;;;;5080261;28;20067;-79
2022/12/30 05:32:54;;;;;;;5.90;0.90;;;;;;;;;;5062683;28;20052;-81
2022/12/30 05:35:20;;;;;;;3.33;1.00;;;;;;;;;;5079894;28;20405;-80
2022/12/30 05:37:45;;;;;;;8.68;1.30;;;;;;;;;;5062067;28;20634;-79
2022/12/30 05:40:11;;;;;;;7.95;1.00;;;;;;;;;;5062376;28;20025;-79
2022/12/30 05:42:36;;;;;;;2.72;0.93;;;;;;;;;;5080622;28;20603;-80
2022/12/30 05:45:02;;;;;;;3.90;1.10;;;;;;;;;;5079779;28;20028;-80
2022/12/30 05:47:27;;;;;;;3.85;0.70;;;;;;;;;;5061038;28;20025;-80
2022/12/30 05:49:53;;;;;;;1.67;0.80;;;;;;;;;;5079148;28;20482;-79
2022/12/30 05:52:18;;;;;;;6.35;1.15;;;;;;;;;;5078946;28;20078;-80
2022/12/30 05:54:43;;;;;;;3.80;1.00;;;;;;;;;;5078979;28;20035;-80
2022/12/30 05:57:09;;;;;;;4.10;1.00;;;;;;;;;;5079194;28;20086;-80
2022/12/30 05:59:34;;;;;;;4.20;1.00;;;;;;;;;;5079209;28;20077;-79
2022/12/30 06:02:00;;;;;;;3.72;0.88;;;;;;;;;;5079110;28;20398;-80
2022/12/30 06:04:25;;;;;;;4.90;1.13;;;;;;;;;;5078627;28;20033;-80
2022/12/30 06:06:50;;;;;;;2.65;0.98;;;;;;;;;;5078789;28;20021;-80
2022/12/30 06:09:16;;;;;;;2.83;0.90;;;;;;;;;;5079516;28;20027;-79
2022/12/30 06:11:41;;;;;;;6.70;1.30;;;;;;;;;;5079524;28;20099;-81
2022/12/30 06:14:09;;;;;;;2.78;1.02;;;;;;;;;;5078860;28;20375;-80
2022/12/30 06:16:34;;;;;;;1.88;0.93;;;;;;;;;;5061299;28;20418;-80
2022/12/30 06:18:59;;;;;;;4.07;1.00;;;;;;;;;;5078876;28;20051;-80
2022/12/30 06:21:24;;;;;;;2.73;0.90;;;;;;;;;;5078776;28;20269;-79
2022/12/30 06:23:50;;;;;;;2.43;0.70;;;;;;;;;;5078243;28;20276;-81
2022/12/30 06:26:15;;;;;;;1.50;0.98;;;;;;;;;;5059742;28;20273;-79
2022/12/30 06:28:40;;;;;;;4.10;1.05;;;;;;;;;;5078805;28;20409;-80
2022/12/30 06:31:05;;;;;;;2.55;0.73;;;;;;;;;;5060017;28;20025;-81
2022/12/30 06:33:30;;;;;;;4.90;0.80;;;;;;;;;;5077865;28;20032;-81
2022/12/30 06:35:56;;;;;;;3.10;0.70;;;;;;;;;;5077907;28;20024;-81
2022/12/30 06:38:21;;;;;;;6.00;1.00;;;;;;;;;;5060361;28;20020;-81
2022/12/30 06:40:47;;;;;;;4.35;1.00;;;;;;;;;;5077783;28;20056;-80
2022/12/30 06:43:12;;;;;;;4.18;0.93;;;;;;;;;;5059831;28;20481;-79
2022/12/30 06:45:37;;;;;;;6.38;1.15;;;;;;;;;;5077791;28;20024;-79
2022/12/30 06:48:03;;;;;;;4.22;1.00;;;;;;;;;;5077721;28;20081;-80
2022/12/30 06:50:29;;;;;;;8.85;1.02;;;;;;;;;;5077345;28;20051;-80
2022/12/30 06:52:54;;;;;;;4.03;1.23;;;;;;;;;;5077866;28;20073;-79
2022/12/30 06:55:21;;;;;;;3.85;1.00;;;;;;;;;;5059372;28;20340;-79
2022/12/30 06:57:47;;;;;;;4.25;0.68;;;;;;;;;;5059033;28;20025;-79
2022/12/30 07:00:13;;;;;;;2.70;0.80;;;;;;;;;;5077376;28;20028;-80
2022/12/30 07:02:38;;;;;;;7.07;1.10;;;;;;;;;;5077143;28;20081;-81
2022/12/30 07:05:04;;;;;;;3.17;1.00;;;;;;;;;;5077200;28;20036;-80
2022/12/30 07:07:29;;;;;;;10.20;1.20;;;;;;;;;;5077483;28;20289;-81
2022/12/30 07:09:54;;;;;;;4.38;1.10;;;;;;;;;;5059984;28;20051;-81
2022/12/30 07:12:19;;;;;;;4.67;1.03;;;;;;;;;;5077719;28;20100;-80
2022/12/30 07:14:44;;;;;;;4.20;1.30;;;;;;;;;;5077503;28;20279;-79
2022/12/30 07:17:10;;;;;;;4.30;1.17;;;;;;;;;;5077586;28;20311;-79
2022/12/30 07:19:35;;;;;;;4.13;1.00;;;;;;;;;;5078820;28;20020;-81
2022/12/30 07:22:00;;;;;;;2.67;1.13;;;;;;;;;;5077028;28;20032;-80
2022/12/30 07:24:26;;;;;;;4.80;1.20;;;;;;;;;;5077427;28;20423;-81
2022/12/30 07:26:51;;;;;;;3.93;1.00;;;;;;;;;;5076668;28;20693;-81
2022/12/30 07:29:16;;;;;;;3.03;1.25;;;;;;;;;;5076598;28;20738;-80
2022/12/30 07:31:42;;;;;;;2.72;1.02;;;;;;;;;;5077256;28;20108;-80
2022/12/30 07:34:07;;;;;;;3.97;1.20;;;;;;;;;;5076912;28;20051;-80
2022/12/30 07:36:32;;;;;;;5.05;0.98;;;;;;;;;;5077844;28;20025;-80
2022/12/30 07:38:59;;;;;;;3.38;1.17;;;;;;;;;;5077493;28;20029;-79
2022/12/30 07:41:27;;;;;;;6.93;1.45;;;;;;;;;;5058396;28;20024;-79
2022/12/30 07:43:53;;;;;;;5.47;1.13;;;;;;;;;;5077044;28;20028;-80
2022/12/30 07:46:18;;;;;;;2.20;1.02;;;;;;;;;;5058915;28;20078;-80
2022/12/30 07:48:44;;;;;;;2.92;0.95;;;;;;;;;;5077545;28;20024;-80
2022/12/30 07:51:11;;;;;;;5.63;1.00;;;;;;;;;;5077419;28;20359;-80
2022/12/30 07:53:37;;;;;;;8.63;1.30;;;;;;;;;;5077191;28;20028;-80
2022/12/30 07:56:07;;;;;;;4.45;1.27;;;;;;;;;;5077573;28;20016;-81
2022/12/30 07:58:33;;;;;;;4.63;1.30;;;;;;;;;;5077455;28;20085;-80
2022/12/30 08:01:03;;;;;;;3.47;1.42;;;;;;;;;;5077552;28;20428;-81
2022/12/30 08:03:28;;;;;;;6.35;1.33;;;;;;;;;;5076950;28;20619;-79
2022/12/30 08:05:54;;;;;;;4.88;1.23;;;;;;;;;;5077090;28;20056;-80
2022/12/30 08:08:19;;;;;;;6.50;1.20;;;;;;;;;;5077357;28;20382;-81
2022/12/30 08:10:57;;;;;;;4.90;1.25;;;;;;;;;;5058972;28;20623;-81
2022/12/30 08:13:22;;;;;;;10.70;1.27;;;;;;;;;;5076694;28;20567;-81
2022/12/30 08:15:47;;;;;;;3.83;1.75;;;;;;;;;;5076884;28;20028;-80
2022/12/30 08:18:13;;;;;;;8.17;1.30;;;;;;;;;;5059213;28;20091;-80
2022/12/30 08:20:38;;;;;;;7.43;1.20;;;;;;;;;;5059127;28;20257;-82
2022/12/30 08:23:03;;;;;;;6.28;1.70;;;;;;;;;;5077469;28;20111;-80
2022/12/30 08:25:28;;;;;;;7.53;1.60;;;;;;;;;;5058704;28;20382;-81
2022/12/30 08:27:53;;;;;;;5.80;1.03;;;;;;;;;;5076621;28;20618;-81
2022/12/30 08:30:19;;;;;;;2.70;0.93;;;;;;;;;;5076968;28;20746;-81
2022/12/30 08:32:44;;;;;;;2.30;1.03;;;;;;;;;;5077196;28;20749;-81
2022/12/30 08:35:09;;;;;;;3.60;1.40;;;;;;;;;;5077336;28;20742;-81
2022/12/30 08:37:34;;;;;;;3.40;1.05;;;;;;;;;;5077473;28;20333;-80
2022/12/30 08:40:00;;;;;;;7.28;1.00;;;;;;;;;;5077200;28;20024;-80
2022/12/30 08:42:25;;;;;;;10.25;1.10;;;;;;;;;;5077058;28;20102;-82
2022/12/30 08:44:50;;;;;;;5.30;1.08;;;;;;;;;;5058406;28;20111;-81
2022/12/30 08:47:15;;;;;;;5.28;1.02;;;;;;;;;;5076994;28;20025;-81
2022/12/30 08:49:41;;;;;;;5.43;1.10;;;;;;;;;;5077269;28;20032;-81
2022/12/30 08:52:06;;;;;;;4.07;1.03;;;;;;;;;;5076870;28;20498;-81
2022/12/30 08:54:31;;;;;;;5.50;1.17;;;;;;;;;;5059077;28;20855;-80
2022/12/30 08:56:56;;;;;;;4.10;1.00;;;;;;;;;;5076302;28;20760;-80
2022/12/30 08:59:21;;;;;;;6.93;1.23;;;;;;;;;;5076547;28;20276;-80
2022/12/30 09:01:47;;;;;;;6.70;1.40;;;;;;;;;;5076587;28;20367;-81
2022/12/30 09:04:12;;;;;;;3.37;1.00;;;;;;;;;;5076882;28;20303;-80
2022/12/30 09:06:39;;;;;;;9.27;1.48;;;;;;;;;;5058497;28;20645;-79
2022/12/30 09:09:06;;;;;;;5.32;1.25;;;;;;;;;;5076654;28;20036;-82
2022/12/30 09:11:34;;;;;;;3.47;1.10;;;;;;;;;;5058337;28;20024;-81
2022/12/30 09:14:02;;;;;;;4.45;1.25;;;;;;;;;;5075941;28;20051;-81
2022/12/30 09:16:28;;;;;;;7.45;1.23;;;;;;;;;;5076027;28;20092;-81
2022/12/30 09:18:57;;;;;;;8.27;2.03;;;;;;;;;;5058688;28;20397;-81
2022/12/30 09:21:23;;;;;;;3.08;1.20;;;;;;;;;;5081032;28;20103;-80
2022/12/30 09:23:49;;;;;;;4.25;1.17;;;;;;;;;;5061667;28;20021;-80
2022/12/30 09:26:17;;;;;;;8.45;1.20;;;;;;;;;;5079462;28;20033;-80
2022/12/30 09:28:42;;;;;;;4.45;1.08;;;;;;;;;;5061198;28;20028;-80
2022/12/30 09:31:07;;;;;;;8.07;1.50;;;;;;;;;;5079879;28;20119;-79
2022/12/30 09:33:32;;;;;;;9.52;1.30;;;;;;;;;;5078835;28;20067;-81
2022/12/30 09:35:58;;;;;;;8.67;1.60;;;;;;;;;;5079273;28;20031;-80
2022/12/30 09:38:26;;;;;;;4.40;1.25;;;;;;;;;;5060892;28;20261;-81
2022/12/30 09:41:08;;;;;;;4.43;0.98;;;;;;;;;;5079447;28;20103;-80
2022/12/30 09:43:55;;;;;;;3.42;0.98;;;;;;;;;;5061347;28;20327;-80
2022/12/30 09:46:35;;;;;;;5.78;1.10;;;;;;;;;;5062114;28;20028;-80
2022/12/30 09:49:04;;;;;;;2.78;1.02;;;;;;;;;;5079781;28;20445;-78
2022/12/30 09:51:47;;;;;;;7.30;1.48;;;;;;;;;;5079036;28;20123;-81
2022/12/30 09:54:16;;;;;;;2.85;1.10;;;;;;;;;;5081153;28;20040;-81
2022/12/30 09:56:43;;;;;;;7.80;1.23;;;;;;;;;;5081317;28;20020;-80
2022/12/30 09:59:15;;;;;;;5.43;1.17;;;;;;;;;;5080971;28;20036;-81
2022/12/30 10:01:57;;;;;;;6.20;1.60;;;;;;;;;;5081343;28;20025;-79
2022/12/30 10:04:36;;;;;;;10.50;1.90;;;;;;;;;;5063589;28;20112;-80
2022/12/30 10:07:12;;;;;;;5.32;1.48;;;;;;;;;;5080757;28;20060;-80
2022/12/30 10:09:44;;;;;;;6.05;1.40;;;;;;;;;;5081186;28;20030;-81
2022/12/30 10:12:31;;;;;;;5.80;1.17;;;;;;;;;;5081061;28;20020;-79
2022/12/30 10:15:34;;;;;;;4.97;1.15;;;;;;;;;;5081277;28;20047;-80
2022/12/30 10:18:19;;;;;;;9.90;1.30;;;;;;;;;;5063306;28;20028;-80
2022/12/30 10:20:48;;;;;;;;;;;;;;;;;;5081006;28;20044;-80
2022/12/30 10:23:45;;;;;;;6.63;1.52;;;;;;;;;;5062127;28;19913;-80
2022/12/30 10:26:13;;;;;;;5.43;1.10;;;;;;;;;;5055022;28;20512;-80
2022/12/30 10:28:46;;;;;;;6.53;1.58;;;;;;;;;;5080029;28;20472;-81
2022/12/30 10:31:18;;;;;;;4.70;1.07;;;;;;;;;;5061784;28;20024;-81
2022/12/30 10:33:44;;;;;;;2.33;0.90;;;;;;;;;;5062010;28;20104;-79
2022/12/30 10:36:16;;;;;;;6.57;1.58;;;;;;;;;;5080267;28;20052;-80
2022/12/30 10:38:42;;;;;;;7.25;3.70;;;;;;;;;;5081122;28;20031;-81
2022/12/30 10:41:18;;;;;;;5.32;1.25;;;;;;;;;;5080526;28;20028;-81
2022/12/30 10:44:02;;;;;;;9.30;1.73;;;;;;;;;;5061672;28;20058;-80
2022/12/30 10:46:52;;;;;;;7.90;1.25;;;;;;;;;;5079483;28;20025;-81
2022/12/30 10:49:55;;;;;;;4.97;1.20;;;;;;;;;;5079865;28;20549;-82
2022/12/30 10:52:21;;;;;;;3.45;1.10;;;;;;;;;;5079332;28;20031;-81
2022/12/30 10:54:47;;;;;;;3.08;1.20;;;;;;;;;;5061490;28;20465;-82
2022/12/30 10:57:28;;;;;;;3.45;1.20;;;;;;;;;;5079657;28;20035;-81
2022/12/30 10:59:58;;;;;;;5.32;1.20;;;;;;;;;;5079240;28;20030;-80
2022/12/30 11:02:33;;;;;;;7.40;1.25;;;;;;;;;;5078993;28;20059;-81
2022/12/30 11:05:01;;;;;;;6.22;0.90;;;;;;;;;;5078937;28;20021;-81
2022/12/30 11:07:26;;;;;;;3.10;0.73;;;;;;;;;;5060600;28;20107;-80
2022/12/30 11:09:51;;;;;;;4.35;1.42;;;;;;;;;;5078276;28;20433;-82
2022/12/30 11:15:20;;;;;;;4.72;2.03;;;;;;;;;;5078567;28;20440;-78
2022/12/30 11:17:52;;;;;;;7.55;1.30;;;;;;;;;;5078044;28;20020;-79
2022/12/30 11:20:33;;;;;;;2.78;0.90;;;;;;;;;;5077186;28;20047;-82
2022/12/30 11:23:02;;;;;;;6.57;2.03;;;;;;;;;;5077987;28;20031;-81
2022/12/30 11:25:43;;;;;;;7.15;1.23;;;;;;;;;;5078102;28;20056;-79
2022/12/30 11:28:20;;;;;;;5.53;1.98;;;;;;;;;;5060194;28;20032;-80
2022/12/30 11:30:57;;;;;;;2.75;1.25;;;;;;;;;;5059979;28;20063;-80
2022/12/30 11:33:30;;;;;;;2.83;1.25;;;;;;;;;;5059633;28;20024;-81
2022/12/30 11:36:16;;;;;;;4.65;1.42;;;;;;;;;;5077300;28;20497;-83
2022/12/30 11:38:49;;;;;;;3.70;1.33;;;;;;;;;;5077367;28;20050;-81
2022/12/30 11:41:17;;;;;;;4.07;1.88;;;;;;;;;;5076695;28;20052;-81
2022/12/30 11:43:49;;;;;;;4.95;1.63;;;;;;;;;;5076558;28;20032;-81
2022/12/30 11:46:20;;;;;;;7.38;1.88;;;;;;;;;;5059415;28;20020;-81
2022/12/30 11:48:46;;;;;;;7.95;1.80;;;;;;;;;;5077965;28;20025;-82
2022/12/30 11:51:24;;;;;;;3.80;1.40;;;;;;;;;;5078834;28;20020;-83
2022/12/30 11:54:03;;;;;;;2.47;1.20;;;;;;;;;;5078558;28;20025;-80
2022/12/30 11:56:28;;;;;;;27.83;10.30;;;;;;;;;;5078098;28;20028;-81
2022/12/30 11:58:54;;;;;;;6.22;3.03;;;;;;;;;;5077417;28;20032;-82
2022/12/30 12:01:19;;;;;;;8.05;3.25;;;;;;;;;;5077315;28;20031;-80
2022/12/30 12:03:56;;;;;;;28.90;7.28;;;;;;;;;;5059245;28;20036;-81
2022/12/30 12:06:25;;;;;;;26.20;6.38;;;;;;;;;;5076586;28;20024;-80
2022/12/30 12:09:14;;;;;;;28.25;6.70;;;;;;;;;;5058590;28;20024;-81
2022/12/30 12:11:45;;;;;;;83.90;18.33;;;;;;;;;;5059496;28;20379;-81
2022/12/30 12:14:22;;;;;;;50.10;13.00;;;;;;;;;;5077350;28;20107;-81
2022/12/30 12:16:58;;;;;;;6.82;2.17;;;;;;;;;;5059826;28;20077;-81
2022/12/30 12:19:51;;;;;;;8.68;2.50;;;;;;;;;;5077519;28;20115;-83
2022/12/30 12:22:31;;;;;;;7.25;1.92;;;;;;;;;;5078004;28;20031;-81
2022/12/30 12:25:02;;;;;;;3.70;1.10;;;;;;;;;;5077797;28;20046;-80
2022/12/30 12:27:27;;;;;;;4.60;1.23;;;;;;;;;;5078671;28;20086;-82
2022/12/30 12:29:55;;;;;;;3.70;1.20;;;;;;;;;;5043803;28;20028;-81
2022/12/30 12:32:26;;;;;;;2.92;1.10;;;;;;;;;;5060183;28;20086;-80
2022/12/30 12:35:23;;;;;;;7.18;1.30;;;;;;;;;;5079053;28;20434;-81
2022/12/30 12:38:25;;;;;;;6.35;1.50;;;;;;;;;;5079996;28;20052;-83
2022/12/30 12:41:30;;;;;;;6.93;1.20;;;;;;;;;;5079419;28;20034;-82
2022/12/30 12:44:14;;;;;;;4.03;1.17;;;;;;;;;;5014061;28;20036;-81
2022/12/30 12:47:06;;;;;;;3.28;1.25;;;;;;;;;;5060635;28;20486;-81
2022/12/30 12:49:56;;;;;;;5.13;1.52;;;;;;;;;;5047044;28;20032;-81
2022/12/30 12:52:36;;;;;;;3.85;1.20;;;;;;;;;;5079814;28;20046;-82
2022/12/30 12:55:19;;;;;;;6.05;1.30;;;;;;;;;;5063503;28;20032;-82
2022/12/30 12:57:57;;;;;;;7.60;1.58;;;;;;;;;;5082304;28;20030;-81
2022/12/30 13:00:25;;;;;;;4.93;1.58;;;;;;;;;;5082563;28;20078;-83
2022/12/30 13:03:26;;;;;;;5.15;1.45;;;;;;;;;;5081357;28;20063;-81
2022/12/30 13:06:11;;;;;;;3.17;1.23;;;;;;;;;;5081170;28;20094;-82
2022/12/30 13:08:48;;;;;;;2.53;1.20;;;;;;;;;;5082417;28;20487;-82
2022/12/30 13:11:22;;;;;;;6.45;2.00;;;;;;;;;;5081505;28;20038;-81
2022/12/30 13:13:54;;;;;;;;;;;;;;;;;;5081584;28;20028;-81
2022/12/30 13:16:28;;;;;;;11.93;2.60;;;;;;;;;;5080942;28;20313;-82
2022/12/30 13:18:55;;;;;;;5.22;2.65;;;;;;;;;;5063742;28;20056;-81
2022/12/30 13:21:25;;;;;;;6.63;2.78;;;;;;;;;;5081207;28;20044;-81
2022/12/30 13:23:55;;;;;;;5.55;2.50;;;;;;;;;;5062872;28;20082;-81
2022/12/30 13:26:24;;;;;;;7.00;2.20;;;;;;;;;;5080942;28;20032;-81
2022/12/30 13:28:58;;;;;;;5.43;2.30;;;;;;;;;;5061930;28;20021;-81
2022/12/30 13:31:40;;;;;;;7.63;2.33;;;;;;;;;;5062190;28;20024;-81
2022/12/30 13:34:50;;;;;;;5.55;2.60;;;;;;;;;;5080123;28;20072;-81
2022/12/30 13:37:21;;;;;;;9.02;3.00;;;;;;;;;;5001719;28;20112;-81
2022/12/30 13:39:52;;;;;;;13.40;3.70;;;;;;;;;;5018220;28;20036;-81
2022/12/30 13:43:01;;;;;;;5.93;3.47;;;;;;;;;;5052002;28;20086;-81
2022/12/30 13:45:32;;;;;;;4.68;2.50;;;;;;;;;;5078680;28;20028;-82
2022/12/30 13:48:02;;;;;;;6.25;2.22;;;;;;;;;;5078184;28;20503;-81
2022/12/30 13:50:30;;;;;;;4.78;1.60;;;;;;;;;;5076937;28;20370;-81
2022/12/30 13:52:57;;;;;;;2.88;1.48;;;;;;;;;;5076745;28;20029;-80
2022/12/30 13:55:35;;;;;;;5.95;1.60;;;;;;;;;;5059687;28;20099;-82
2022/12/30 13:58:13;;;;;;;3.67;1.80;;;;;;;;;;5077583;28;20031;-81
2022/12/30 14:00:42;;;;;;;4.80;1.70;;;;;;;;;;5077796;28;20025;-82
2022/12/30 14:03:36;;;;;;;6.03;1.50;;;;;;;;;;5079074;28;20036;-80
2022/12/30 14:06:22;;;;;;;4.40;1.85;;;;;;;;;;5060912;28;20033;-81
2022/12/30 14:08:50;;;;;;;8.80;1.98;;;;;;;;;;5077180;28;20029;-80
2022/12/30 14:11:20;;;;;;;9.05;2.00;;;;;;;;;;5077952;28;20025;-82
2022/12/30 14:14:18;;;;;;;6.38;1.77;;;;;;;;;;5077751;28;20032;-81
2022/12/30 14:16:56;;;;;;;6.10;1.70;;;;;;;;;;5059794;28;20497;-81
2022/12/30 14:19:46;;;;;;;4.72;1.88;;;;;;;;;;5060000;28;20460;-80
2022/12/30 14:22:43;;;;;;;4.88;1.92;;;;;;;;;;5060030;28;20028;-80
2022/12/30 14:25:31;;;;;;;8.10;2.08;;;;;;;;;;5077737;28;20428;-81
2022/12/30 14:28:01;;;;;;;4.18;1.50;;;;;;;;;;5077895;28;20086;-81
2022/12/30 14:31:00;;;;;;;4.75;1.40;;;;;;;;;;5077686;28;20074;-80
2022/12/30 14:33:38;;;;;;;4.93;1.33;;;;;;;;;;5070232;28;20040;-80
2022/12/30 14:36:13;;;;;;;4.63;1.30;;;;;;;;;;5077909;28;20025;-81
2022/12/30 14:38:50;;;;;;;4.15;1.40;;;;;;;;;;5077563;28;20028;-79
2022/12/30 14:41:24;;;;;;;4.93;1.30;;;;;;;;;;5059533;28;20078;-81
2022/12/30 14:43:54;;;;;;;7.53;1.70;;;;;;;;;;5077875;28;20112;-79
2022/12/30 14:46:32;;;;;;;6.50;1.25;;;;;;;;;;5059747;28;20081;-79
2022/12/30 14:49:04;;;;;;;4.85;1.30;;;;;;;;;;5059758;28;20036;-80
2022/12/30 14:51:36;;;;;;;6.03;1.33;;;;;;;;;;5077563;28;20029;-81
2022/12/30 14:54:04;;;;;;;5.82;1.80;;;;;;;;;;5059433;28;20099;-80
2022/12/30 14:56:30;;;;;;;4.45;1.48;;;;;;;;;;5059387;28;20122;-79
2022/12/30 14:58:56;;;;;;;10.13;1.55;;;;;;;;;;5077794;28;20074;-80
2022/12/30 15:01:22;;;;;;;4.05;1.10;;;;;;;;;;5059532;28;20330;-80
2022/12/30 15:04:13;;;;;;;4.50;1.58;;;;;;;;;;5076904;28;20032;-80
2022/12/30 15:06:44;;;;;;;5.03;1.30;;;;;;;;;;5059688;28;20025;-81
2022/12/30 15:09:18;;;;;;;5.97;1.40;;;;;;;;;;5077281;28;20076;-80
2022/12/30 15:11:52;;;;;;;4.72;1.25;;;;;;;;;;5077637;28;20032;-80
2022/12/30 15:14:17;;;;;;;3.15;1.50;;;;;;;;;;5076788;28;20085;-81
2022/12/30 15:16:42;;;;;;;3.50;1.48;;;;;;;;;;5075951;28;20107;-80
2022/12/30 15:19:24;;;;;;;6.25;1.42;;;;;;;;;;5076594;28;20105;-80
2022/12/30 15:21:50;;;;;;;5.57;1.70;;;;;;;;;;5058924;28;20024;-80
2022/12/30 15:24:18;;;;;;;6.47;1.77;;;;;;;;;;5076180;28;20031;-80
2022/12/30 15:26:44;;;;;;;8.15;2.03;;;;;;;;;;5076745;28;20535;-80
2022/12/30 15:29:26;;;;;;;3.33;1.50;;;;;;;;;;5078001;28;20024;-80
2022/12/30 15:31:56;;;;;;;5.80;2.03;;;;;;;;;;5060750;28;20107;-80
2022/12/30 15:34:36;;;;;;;8.60;2.03;;;;;;;;;;5078708;28;20070;-81
2022/12/30 15:37:05;;;;;;;4.57;1.80;;;;;;;;;;5078498;28;20016;-79
2022/12/30 15:39:40;;;;;;;8.38;2.03;;;;;;;;;;5078472;28;20076;-80
2022/12/30 15:42:05;;;;;;;5.60;1.50;;;;;;;;;;5061372;28;20069;-81
2022/12/30 15:44:31;;;;;;;3.65;1.70;;;;;;;;;;5077876;28;20398;-80
2022/12/30 15:46:59;;;;;;;2.53;1.27;;;;;;;;;;5077447;28;20021;-82
2022/12/30 15:49:28;;;;;;;3.47;1.50;;;;;;;;;;5077783;28;20533;-80
2022/12/30 15:54:58;;;;;;;6.78;1.73;;;;;;;;;;5074738;28;20031;-81
2022/12/30 15:57:30;;;;;;;2.85;1.40;;;;;;;;;;5059714;28;20115;-83
2022/12/30 16:00:05;;;;;;;3.47;1.23;;;;;;;;;;5078110;28;20028;-81
2022/12/30 16:02:38;;;;;;;2.38;1.13;;;;;;;;;;5059944;28;20027;-81
2022/12/30 16:05:06;;;;;;;4.07;1.20;;;;;;;;;;5078095;28;20114;-81